sensor_id;sensor_type;location;lat;lon;timestamp;P1;durP1;ratioP1;P2;durP2;ratioP2
19179;SDS011;9722;48.754;8.868;2024-03-02T00:00:54;7.80;;;6.83;;
19179;SDS011;9722;48.754;8.868;2024-03-02T00:04:15;7.23;;;6.43;;
19179;SDS011;9722;48.754;8.868;2024-03-02T00:07:37;6.70;;;6.00;;
19179;SDS011;9722;48.754;8.868;2024-03-02T00:10:58;7.13;;;5.83;;
19179;SDS011;9722;48.754;8.868;2024-03-02T00:14:19;7.03;;;6.03;;
19179;SDS011;9722;48.754;8.868;2024-03-02T00:17:40;6.80;;;6.20;;
19179;SDS011;9722;48.754;8.868;2024-03-02T00:21:01;6.60;;;6.00;;
19179;SDS011;9722;48.754;8.868;2024-03-02T00:24:32;7.73;;;6.03;;
19179;SDS011;9722;48.754;8.868;2024-03-02T00:27:54;6.97;;;6.23;;
19179;SDS011;9722;48.754;8.868;2024-03-02T00:31:15;6.87;;;6.17;;
19179;SDS011;9722;48.754;8.868;2024-03-02T00:34:39;5.90;;;5.30;;
19179;SDS011;9722;48.754;8.868;2024-03-02T00:38:08;6.10;;;5.50;;
19179;SDS011;9722;48.754;8.868;2024-03-02T00:41:29;5.67;;;5.17;;
19179;SDS011;9722;48.754;8.868;2024-03-02T00:44:51;7.03;;;6.40;;
19179;SDS011;9722;48.754;8.868;2024-03-02T00:48:11;8.77;;;5.90;;
19179;SDS011;9722;48.754;8.868;2024-03-02T00:51:35;7.23;;;6.50;;
19179;SDS011;9722;48.754;8.868;2024-03-02T00:54:56;6.73;;;5.87;;
19179;SDS011;9722;48.754;8.868;2024-03-02T00:58:17;6.20;;;5.63;;
19179;SDS011;9722;48.754;8.868;2024-03-02T01:01:38;5.67;;;5.17;;
19179;SDS011;9722;48.754;8.868;2024-03-02T01:04:58;9.37;;;5.70;;
19179;SDS011;9722;48.754;8.868;2024-03-02T01:08:19;6.60;;;5.97;;
19179;SDS011;9722;48.754;8.868;2024-03-02T01:11:40;6.23;;;5.63;;
19179;SDS011;9722;48.754;8.868;2024-03-02T01:15:00;6.77;;;6.07;;
19179;SDS011;9722;48.754;8.868;2024-03-02T01:18:21;6.80;;;6.00;;
19179;SDS011;9722;48.754;8.868;2024-03-02T01:21:42;7.17;;;6.43;;
19179;SDS011;9722;48.754;8.868;2024-03-02T01:25:02;6.50;;;5.90;;
19179;SDS011;9722;48.754;8.868;2024-03-02T01:28:23;6.97;;;6.17;;
19179;SDS011;9722;48.754;8.868;2024-03-02T01:31:44;7.33;;;6.13;;
19179;SDS011;9722;48.754;8.868;2024-03-02T01:35:05;7.67;;;6.40;;
19179;SDS011;9722;48.754;8.868;2024-03-02T01:38:26;8.07;;;6.30;;
19179;SDS011;9722;48.754;8.868;2024-03-02T01:41:48;7.23;;;6.53;;
19179;SDS011;9722;48.754;8.868;2024-03-02T01:45:09;6.97;;;6.27;;
19179;SDS011;9722;48.754;8.868;2024-03-02T01:48:29;6.97;;;6.27;;
19179;SDS011;9722;48.754;8.868;2024-03-02T01:51:50;7.40;;;6.70;;
19179;SDS011;9722;48.754;8.868;2024-03-02T01:55:11;7.60;;;6.83;;
19179;SDS011;9722;48.754;8.868;2024-03-02T01:58:31;7.27;;;6.57;;
19179;SDS011;9722;48.754;8.868;2024-03-02T02:01:51;8.00;;;7.23;;
19179;SDS011;9722;48.754;8.868;2024-03-02T02:05:12;7.33;;;6.63;;
19179;SDS011;9722;48.754;8.868;2024-03-02T02:08:33;6.90;;;6.20;;
19179;SDS011;9722;48.754;8.868;2024-03-02T02:11:54;7.83;;;7.23;;
19179;SDS011;9722;48.754;8.868;2024-03-02T02:15:21;7.93;;;7.20;;
19179;SDS011;9722;48.754;8.868;2024-03-02T02:18:45;8.17;;;7.33;;
19179;SDS011;9722;48.754;8.868;2024-03-02T02:22:06;8.23;;;7.43;;
19179;SDS011;9722;48.754;8.868;2024-03-02T02:25:27;8.37;;;7.50;;
19179;SDS011;9722;48.754;8.868;2024-03-02T02:28:48;7.80;;;7.00;;
19179;SDS011;9722;48.754;8.868;2024-03-02T02:32:09;8.87;;;7.33;;
19179;SDS011;9722;48.754;8.868;2024-03-02T02:35:29;9.10;;;8.00;;
19179;SDS011;9722;48.754;8.868;2024-03-02T02:38:50;9.63;;;7.93;;
19179;SDS011;9722;48.754;8.868;2024-03-02T02:42:11;9.40;;;7.63;;
19179;SDS011;9722;48.754;8.868;2024-03-02T02:45:31;7.23;;;6.53;;
19179;SDS011;9722;48.754;8.868;2024-03-02T02:48:52;8.27;;;7.43;;
19179;SDS011;9722;48.754;8.868;2024-03-02T02:52:13;8.63;;;7.40;;
19179;SDS011;9722;48.754;8.868;2024-03-02T02:55:34;8.33;;;7.20;;
19179;SDS011;9722;48.754;8.868;2024-03-02T02:58:54;9.77;;;7.43;;
19179;SDS011;9722;48.754;8.868;2024-03-02T03:02:15;7.97;;;7.17;;
19179;SDS011;9722;48.754;8.868;2024-03-02T03:05:35;8.37;;;7.30;;
19179;SDS011;9722;48.754;8.868;2024-03-02T03:08:56;7.87;;;7.17;;
19179;SDS011;9722;48.754;8.868;2024-03-02T03:12:17;7.97;;;7.13;;
19179;SDS011;9722;48.754;8.868;2024-03-02T03:15:38;8.97;;;7.40;;
19179;SDS011;9722;48.754;8.868;2024-03-02T03:18:58;8.80;;;7.43;;
19179;SDS011;9722;48.754;8.868;2024-03-02T03:22:19;10.13;;;7.63;;
19179;SDS011;9722;48.754;8.868;2024-03-02T03:25:39;9.47;;;7.63;;
19179;SDS011;9722;48.754;8.868;2024-03-02T03:29:00;8.83;;;7.93;;
19179;SDS011;9722;48.754;8.868;2024-03-02T03:32:22;9.67;;;8.67;;
19179;SDS011;9722;48.754;8.868;2024-03-02T03:35:43;10.03;;;9.03;;
19179;SDS011;9722;48.754;8.868;2024-03-02T03:39:03;10.93;;;8.77;;
19179;SDS011;9722;48.754;8.868;2024-03-02T03:42:26;9.00;;;8.10;;
19179;SDS011;9722;48.754;8.868;2024-03-02T03:45:47;9.27;;;8.37;;
19179;SDS011;9722;48.754;8.868;2024-03-02T03:49:07;10.43;;;8.87;;
19179;SDS011;9722;48.754;8.868;2024-03-02T03:52:28;11.70;;;8.20;;
19179;SDS011;9722;48.754;8.868;2024-03-02T03:55:48;8.87;;;7.97;;
19179;SDS011;9722;48.754;8.868;2024-03-02T03:59:12;9.13;;;8.20;;
19179;SDS011;9722;48.754;8.868;2024-03-02T04:02:32;9.13;;;8.17;;
19179;SDS011;9722;48.754;8.868;2024-03-02T04:05:53;10.13;;;9.00;;
19179;SDS011;9722;48.754;8.868;2024-03-02T04:09:13;8.93;;;8.03;;
19179;SDS011;9722;48.754;8.868;2024-03-02T04:12:34;8.93;;;8.13;;
19179;SDS011;9722;48.754;8.868;2024-03-02T04:15:56;8.83;;;7.97;;
19179;SDS011;9722;48.754;8.868;2024-03-02T04:19:17;9.87;;;8.33;;
19179;SDS011;9722;48.754;8.868;2024-03-02T04:22:37;9.40;;;8.30;;
19179;SDS011;9722;48.754;8.868;2024-03-02T04:25:58;10.73;;;8.83;;
19179;SDS011;9722;48.754;8.868;2024-03-02T04:29:18;9.33;;;8.37;;
19179;SDS011;9722;48.754;8.868;2024-03-02T04:32:39;9.03;;;7.60;;
19179;SDS011;9722;48.754;8.868;2024-03-02T04:35:59;8.70;;;7.80;;
19179;SDS011;9722;48.754;8.868;2024-03-02T04:39:20;9.20;;;8.20;;
19179;SDS011;9722;48.754;8.868;2024-03-02T04:42:40;10.27;;;9.13;;
19179;SDS011;9722;48.754;8.868;2024-03-02T04:46:01;9.10;;;8.03;;
19179;SDS011;9722;48.754;8.868;2024-03-02T04:49:21;9.50;;;8.50;;
19179;SDS011;9722;48.754;8.868;2024-03-02T04:52:42;10.93;;;8.43;;
19179;SDS011;9722;48.754;8.868;2024-03-02T04:56:02;10.77;;;9.13;;
19179;SDS011;9722;48.754;8.868;2024-03-02T04:59:42;10.47;;;8.53;;
19179;SDS011;9722;48.754;8.868;2024-03-02T05:03:03;9.83;;;8.73;;
19179;SDS011;9722;48.754;8.868;2024-03-02T05:06:23;8.87;;;7.80;;
19179;SDS011;9722;48.754;8.868;2024-03-02T05:09:44;9.60;;;8.60;;
19179;SDS011;9722;48.754;8.868;2024-03-02T05:13:04;10.30;;;8.57;;
19179;SDS011;9722;48.754;8.868;2024-03-02T05:16:25;10.00;;;9.00;;
19179;SDS011;9722;48.754;8.868;2024-03-02T05:19:45;12.23;;;8.87;;
19179;SDS011;9722;48.754;8.868;2024-03-02T05:23:06;9.47;;;8.20;;
19179;SDS011;9722;48.754;8.868;2024-03-02T05:26:26;8.97;;;8.07;;
19179;SDS011;9722;48.754;8.868;2024-03-02T05:29:47;9.53;;;8.57;;
19179;SDS011;9722;48.754;8.868;2024-03-02T05:33:07;10.80;;;8.43;;
19179;SDS011;9722;48.754;8.868;2024-03-02T05:36:28;10.67;;;8.90;;
19179;SDS011;9722;48.754;8.868;2024-03-02T05:39:48;10.67;;;8.60;;
19179;SDS011;9722;48.754;8.868;2024-03-02T05:43:09;8.77;;;7.87;;
19179;SDS011;9722;48.754;8.868;2024-03-02T05:46:29;8.63;;;7.73;;
19179;SDS011;9722;48.754;8.868;2024-03-02T05:49:50;9.80;;;8.27;;
19179;SDS011;9722;48.754;8.868;2024-03-02T05:53:10;10.43;;;8.93;;
19179;SDS011;9722;48.754;8.868;2024-03-02T05:56:31;11.23;;;8.87;;
19179;SDS011;9722;48.754;8.868;2024-03-02T05:59:52;13.40;;;9.20;;
19179;SDS011;9722;48.754;8.868;2024-03-02T06:03:12;12.83;;;9.60;;
19179;SDS011;9722;48.754;8.868;2024-03-02T06:06:33;9.63;;;8.63;;
19179;SDS011;9722;48.754;8.868;2024-03-02T06:09:53;11.07;;;9.43;;
19179;SDS011;9722;48.754;8.868;2024-03-02T06:13:14;10.30;;;8.50;;
19179;SDS011;9722;48.754;8.868;2024-03-02T06:16:35;9.00;;;8.10;;
19179;SDS011;9722;48.754;8.868;2024-03-02T06:19:55;12.17;;;9.60;;
19179;SDS011;9722;48.754;8.868;2024-03-02T06:23:16;9.97;;;8.93;;
19179;SDS011;9722;48.754;8.868;2024-03-02T06:26:36;8.70;;;7.87;;
19179;SDS011;9722;48.754;8.868;2024-03-02T06:29:57;9.57;;;8.50;;
19179;SDS011;9722;48.754;8.868;2024-03-02T06:33:17;9.50;;;8.33;;
19179;SDS011;9722;48.754;8.868;2024-03-02T06:36:38;9.43;;;8.33;;
19179;SDS011;9722;48.754;8.868;2024-03-02T06:40:00;10.70;;;9.17;;
19179;SDS011;9722;48.754;8.868;2024-03-02T06:43:20;11.00;;;8.33;;
19179;SDS011;9722;48.754;8.868;2024-03-02T06:46:44;12.67;;;9.43;;
19179;SDS011;9722;48.754;8.868;2024-03-02T06:50:04;12.70;;;9.70;;
19179;SDS011;9722;48.754;8.868;2024-03-02T06:53:25;13.07;;;9.57;;
19179;SDS011;9722;48.754;8.868;2024-03-02T06:56:45;12.50;;;8.97;;
19179;SDS011;9722;48.754;8.868;2024-03-02T07:00:06;9.93;;;8.90;;
19179;SDS011;9722;48.754;8.868;2024-03-02T07:03:28;10.87;;;9.70;;
19179;SDS011;9722;48.754;8.868;2024-03-02T07:06:49;11.30;;;10.10;;
19179;SDS011;9722;48.754;8.868;2024-03-02T07:10:10;10.30;;;9.20;;
19179;SDS011;9722;48.754;8.868;2024-03-02T07:13:31;12.93;;;9.93;;
19179;SDS011;9722;48.754;8.868;2024-03-02T07:16:51;12.97;;;9.27;;
19179;SDS011;9722;48.754;8.868;2024-03-02T07:20:12;11.87;;;9.07;;
19179;SDS011;9722;48.754;8.868;2024-03-02T07:23:32;9.97;;;8.43;;
19179;SDS011;9722;48.754;8.868;2024-03-02T07:26:54;10.00;;;8.70;;
19179;SDS011;9722;48.754;8.868;2024-03-02T07:30:14;10.23;;;9.07;;
19179;SDS011;9722;48.754;8.868;2024-03-02T07:33:36;9.67;;;8.07;;
19179;SDS011;9722;48.754;8.868;2024-03-02T07:36:56;10.23;;;9.23;;
19179;SDS011;9722;48.754;8.868;2024-03-02T07:40:17;9.70;;;8.47;;
19179;SDS011;9722;48.754;8.868;2024-03-02T07:43:38;9.30;;;8.40;;
19179;SDS011;9722;48.754;8.868;2024-03-02T07:46:58;9.57;;;8.57;;
19179;SDS011;9722;48.754;8.868;2024-03-02T07:50:19;10.20;;;9.20;;
19179;SDS011;9722;48.754;8.868;2024-03-02T07:53:39;9.97;;;8.90;;
19179;SDS011;9722;48.754;8.868;2024-03-02T07:57:00;9.87;;;8.87;;
19179;SDS011;9722;48.754;8.868;2024-03-02T08:00:21;10.13;;;8.77;;
19179;SDS011;9722;48.754;8.868;2024-03-02T08:03:42;8.93;;;8.13;;
19179;SDS011;9722;48.754;8.868;2024-03-02T08:07:08;8.33;;;7.50;;
19179;SDS011;9722;48.754;8.868;2024-03-02T08:10:29;8.13;;;7.33;;
19179;SDS011;9722;48.754;8.868;2024-03-02T08:13:50;8.33;;;7.63;;
19179;SDS011;9722;48.754;8.868;2024-03-02T08:17:12;7.87;;;7.17;;
19179;SDS011;9722;48.754;8.868;2024-03-02T08:20:33;8.60;;;7.70;;
19179;SDS011;9722;48.754;8.868;2024-03-02T08:23:53;8.60;;;7.90;;
19179;SDS011;9722;48.754;8.868;2024-03-02T08:27:14;8.47;;;7.77;;
19179;SDS011;9722;48.754;8.868;2024-03-02T08:30:35;8.53;;;7.83;;
19179;SDS011;9722;48.754;8.868;2024-03-02T08:33:55;7.97;;;7.37;;
19179;SDS011;9722;48.754;8.868;2024-03-02T08:37:16;8.23;;;7.47;;
19179;SDS011;9722;48.754;8.868;2024-03-02T08:40:37;7.80;;;7.10;;
19179;SDS011;9722;48.754;8.868;2024-03-02T08:43:58;7.77;;;7.10;;
19179;SDS011;9722;48.754;8.868;2024-03-02T08:47:19;7.30;;;6.70;;
19179;SDS011;9722;48.754;8.868;2024-03-02T08:50:40;7.10;;;6.60;;
19179;SDS011;9722;48.754;8.868;2024-03-02T08:54:00;7.33;;;6.77;;
19179;SDS011;9722;48.754;8.868;2024-03-02T08:57:21;7.87;;;7.27;;
19179;SDS011;9722;48.754;8.868;2024-03-02T09:00:41;7.07;;;6.47;;
19179;SDS011;9722;48.754;8.868;2024-03-02T09:04:02;7.03;;;6.53;;
19179;SDS011;9722;48.754;8.868;2024-03-02T09:07:23;8.10;;;7.50;;
19179;SDS011;9722;48.754;8.868;2024-03-02T09:10:43;6.80;;;6.30;;
19179;SDS011;9722;48.754;8.868;2024-03-02T09:14:04;7.17;;;6.67;;
19179;SDS011;9722;48.754;8.868;2024-03-02T09:17:25;6.30;;;5.80;;
19179;SDS011;9722;48.754;8.868;2024-03-02T09:20:45;6.67;;;6.17;;
19179;SDS011;9722;48.754;8.868;2024-03-02T09:24:06;7.50;;;6.90;;
19179;SDS011;9722;48.754;8.868;2024-03-02T09:27:26;6.47;;;5.97;;
19179;SDS011;9722;48.754;8.868;2024-03-02T09:30:47;6.33;;;5.73;;
19179;SDS011;9722;48.754;8.868;2024-03-02T09:34:07;6.67;;;6.07;;
19179;SDS011;9722;48.754;8.868;2024-03-02T09:37:28;6.27;;;5.77;;
19179;SDS011;9722;48.754;8.868;2024-03-02T09:40:48;5.93;;;5.43;;
19179;SDS011;9722;48.754;8.868;2024-03-02T09:44:09;6.50;;;5.60;;
19179;SDS011;9722;48.754;8.868;2024-03-02T09:47:30;5.97;;;5.50;;
19179;SDS011;9722;48.754;8.868;2024-03-02T09:50:50;5.80;;;5.40;;
19179;SDS011;9722;48.754;8.868;2024-03-02T09:54:11;5.87;;;5.47;;
19179;SDS011;9722;48.754;8.868;2024-03-02T09:57:31;5.40;;;5.00;;
19179;SDS011;9722;48.754;8.868;2024-03-02T10:00:52;5.23;;;4.83;;
19179;SDS011;9722;48.754;8.868;2024-03-02T10:04:12;4.57;;;4.17;;
19179;SDS011;9722;48.754;8.868;2024-03-02T10:07:33;4.60;;;4.30;;
19179;SDS011;9722;48.754;8.868;2024-03-02T10:10:53;3.43;;;3.23;;
19179;SDS011;9722;48.754;8.868;2024-03-02T10:14:14;3.90;;;3.60;;
19179;SDS011;9722;48.754;8.868;2024-03-02T10:17:34;3.27;;;3.07;;
19179;SDS011;9722;48.754;8.868;2024-03-02T10:20:55;3.80;;;3.53;;
19179;SDS011;9722;48.754;8.868;2024-03-02T10:24:37;3.87;;;3.57;;
19179;SDS011;9722;48.754;8.868;2024-03-02T10:28:01;3.70;;;3.20;;
19179;SDS011;9722;48.754;8.868;2024-03-02T10:31:25;3.40;;;3.20;;
19179;SDS011;9722;48.754;8.868;2024-03-02T10:34:48;3.17;;;2.87;;
19179;SDS011;9722;48.754;8.868;2024-03-02T10:38:10;3.13;;;2.93;;
19179;SDS011;9722;48.754;8.868;2024-03-02T10:41:32;3.17;;;2.90;;
19179;SDS011;9722;48.754;8.868;2024-03-02T10:44:57;3.40;;;2.50;;
19179;SDS011;9722;48.754;8.868;2024-03-02T10:48:17;2.57;;;2.37;;
19179;SDS011;9722;48.754;8.868;2024-03-02T10:51:38;1.93;;;1.83;;
19179;SDS011;9722;48.754;8.868;2024-03-02T10:54:59;3.43;;;3.13;;
19179;SDS011;9722;48.754;8.868;2024-03-02T10:58:20;1.90;;;1.80;;
19179;SDS011;9722;48.754;8.868;2024-03-02T11:01:41;2.00;;;1.90;;
19179;SDS011;9722;48.754;8.868;2024-03-02T11:05:03;2.23;;;2.10;;
19179;SDS011;9722;48.754;8.868;2024-03-02T11:08:28;1.77;;;1.67;;
19179;SDS011;9722;48.754;8.868;2024-03-02T11:11:50;2.70;;;2.50;;
19179;SDS011;9722;48.754;8.868;2024-03-02T11:15:19;2.30;;;2.10;;
19179;SDS011;9722;48.754;8.868;2024-03-02T11:18:45;1.77;;;1.67;;
19179;SDS011;9722;48.754;8.868;2024-03-02T11:22:06;1.20;;;1.10;;
19179;SDS011;9722;48.754;8.868;2024-03-02T11:25:28;1.20;;;1.10;;
19179;SDS011;9722;48.754;8.868;2024-03-02T11:28:51;1.40;;;1.30;;
19179;SDS011;9722;48.754;8.868;2024-03-02T11:32:20;1.20;;;1.10;;
19179;SDS011;9722;48.754;8.868;2024-03-02T11:35:42;0.77;;;0.77;;
19179;SDS011;9722;48.754;8.868;2024-03-02T11:39:06;0.70;;;0.70;;
19179;SDS011;9722;48.754;8.868;2024-03-02T11:42:27;1.30;;;1.20;;
19179;SDS011;9722;48.754;8.868;2024-03-02T11:45:47;0.90;;;0.90;;
19179;SDS011;9722;48.754;8.868;2024-03-02T11:49:08;1.10;;;1.10;;
19179;SDS011;9722;48.754;8.868;2024-03-02T11:52:29;0.57;;;0.57;;
19179;SDS011;9722;48.754;8.868;2024-03-02T11:55:50;1.00;;;1.00;;
19179;SDS011;9722;48.754;8.868;2024-03-02T11:59:14;0.97;;;0.97;;
19179;SDS011;9722;48.754;8.868;2024-03-02T12:02:35;1.00;;;1.00;;
19179;SDS011;9722;48.754;8.868;2024-03-02T12:05:57;1.00;;;0.90;;
19179;SDS011;9722;48.754;8.868;2024-03-02T12:09:17;0.80;;;0.80;;
19179;SDS011;9722;48.754;8.868;2024-03-02T12:12:38;1.10;;;0.77;;
19179;SDS011;9722;48.754;8.868;2024-03-02T12:15:58;0.60;;;0.60;;
19179;SDS011;9722;48.754;8.868;2024-03-02T12:19:19;0.50;;;0.50;;
19179;SDS011;9722;48.754;8.868;2024-03-02T12:22:40;0.77;;;0.77;;
19179;SDS011;9722;48.754;8.868;2024-03-02T12:26:01;0.57;;;0.57;;
19179;SDS011;9722;48.754;8.868;2024-03-02T12:29:21;0.40;;;0.40;;
19179;SDS011;9722;48.754;8.868;2024-03-02T12:32:44;0.63;;;0.63;;
19179;SDS011;9722;48.754;8.868;2024-03-02T12:36:05;0.40;;;0.40;;
19179;SDS011;9722;48.754;8.868;2024-03-02T12:39:31;0.60;;;0.60;;
19179;SDS011;9722;48.754;8.868;2024-03-02T12:42:52;0.57;;;0.57;;
19179;SDS011;9722;48.754;8.868;2024-03-02T12:46:20;0.77;;;0.53;;
19179;SDS011;9722;48.754;8.868;2024-03-02T12:49:40;0.50;;;0.50;;
19179;SDS011;9722;48.754;8.868;2024-03-02T12:53:01;0.50;;;0.50;;
19179;SDS011;9722;48.754;8.868;2024-03-02T12:56:22;0.50;;;0.50;;
19179;SDS011;9722;48.754;8.868;2024-03-02T12:59:47;0.60;;;0.60;;
19179;SDS011;9722;48.754;8.868;2024-03-02T13:03:08;0.63;;;0.50;;
19179;SDS011;9722;48.754;8.868;2024-03-02T13:06:28;0.77;;;0.50;;
19179;SDS011;9722;48.754;8.868;2024-03-02T13:09:49;0.57;;;0.57;;
19179;SDS011;9722;48.754;8.868;2024-03-02T13:13:10;0.73;;;0.73;;
19179;SDS011;9722;48.754;8.868;2024-03-02T13:16:31;0.87;;;0.87;;
19179;SDS011;9722;48.754;8.868;2024-03-02T13:23:13;1.90;;;0.90;;
19179;SDS011;9722;48.754;8.868;2024-03-02T13:26:34;1.00;;;1.00;;
19179;SDS011;9722;48.754;8.868;2024-03-02T13:29:54;1.90;;;1.20;;
19179;SDS011;9722;48.754;8.868;2024-03-02T13:33:15;1.10;;;1.00;;
19179;SDS011;9722;48.754;8.868;2024-03-02T13:36:35;1.10;;;1.00;;
19179;SDS011;9722;48.754;8.868;2024-03-02T13:39:56;1.53;;;1.30;;
19179;SDS011;9722;48.754;8.868;2024-03-02T13:43:16;1.30;;;1.20;;
19179;SDS011;9722;48.754;8.868;2024-03-02T13:46:38;2.50;;;1.93;;
19179;SDS011;9722;48.754;8.868;2024-03-02T13:49:59;9.60;;;7.80;;
19179;SDS011;9722;48.754;8.868;2024-03-02T13:53:19;3.17;;;2.87;;
19179;SDS011;9722;48.754;8.868;2024-03-02T13:56:40;1.43;;;1.23;;
19179;SDS011;9722;48.754;8.868;2024-03-02T14:00:01;1.00;;;1.00;;
19179;SDS011;9722;48.754;8.868;2024-03-02T14:03:23;0.97;;;0.97;;
19179;SDS011;9722;48.754;8.868;2024-03-02T14:06:43;0.80;;;0.77;;
19179;SDS011;9722;48.754;8.868;2024-03-02T14:10:04;1.00;;;1.00;;
19179;SDS011;9722;48.754;8.868;2024-03-02T14:13:25;1.57;;;1.47;;
19179;SDS011;9722;48.754;8.868;2024-03-02T14:16:46;1.00;;;0.90;;
19179;SDS011;9722;48.754;8.868;2024-03-02T14:20:07;0.73;;;0.73;;
19179;SDS011;9722;48.754;8.868;2024-03-02T14:23:30;0.80;;;0.80;;
19179;SDS011;9722;48.754;8.868;2024-03-02T14:26:50;1.10;;;1.00;;
19179;SDS011;9722;48.754;8.868;2024-03-02T14:30:13;0.90;;;0.90;;
19179;SDS011;9722;48.754;8.868;2024-03-02T14:33:34;1.00;;;1.00;;
19179;SDS011;9722;48.754;8.868;2024-03-02T14:36:54;2.10;;;1.00;;
19179;SDS011;9722;48.754;8.868;2024-03-02T14:40:15;0.90;;;0.90;;
19179;SDS011;9722;48.754;8.868;2024-03-02T14:43:36;1.20;;;0.87;;
19179;SDS011;9722;48.754;8.868;2024-03-02T14:46:57;0.93;;;0.93;;
19179;SDS011;9722;48.754;8.868;2024-03-02T14:50:18;1.40;;;0.90;;
19179;SDS011;9722;48.754;8.868;2024-03-02T14:53:39;1.57;;;0.90;;
19179;SDS011;9722;48.754;8.868;2024-03-02T14:56:59;0.80;;;0.80;;
19179;SDS011;9722;48.754;8.868;2024-03-02T15:00:20;0.80;;;0.80;;
19179;SDS011;9722;48.754;8.868;2024-03-02T15:03:40;1.83;;;0.90;;
19179;SDS011;9722;48.754;8.868;2024-03-02T15:07:01;1.03;;;0.70;;
19179;SDS011;9722;48.754;8.868;2024-03-02T15:10:21;0.53;;;0.50;;
19179;SDS011;9722;48.754;8.868;2024-03-02T15:13:42;0.70;;;0.70;;
19179;SDS011;9722;48.754;8.868;2024-03-02T15:17:03;0.47;;;0.47;;
19179;SDS011;9722;48.754;8.868;2024-03-02T15:20:24;0.90;;;0.90;;
19179;SDS011;9722;48.754;8.868;2024-03-02T15:23:44;0.70;;;0.70;;
19179;SDS011;9722;48.754;8.868;2024-03-02T15:27:05;0.60;;;0.50;;
19179;SDS011;9722;48.754;8.868;2024-03-02T15:30:28;0.60;;;0.60;;
19179;SDS011;9722;48.754;8.868;2024-03-02T15:33:48;1.47;;;0.70;;
19179;SDS011;9722;48.754;8.868;2024-03-02T15:37:09;0.80;;;0.70;;
19179;SDS011;9722;48.754;8.868;2024-03-02T15:40:30;1.97;;;0.73;;
19179;SDS011;9722;48.754;8.868;2024-03-02T15:43:50;1.00;;;0.70;;
19179;SDS011;9722;48.754;8.868;2024-03-02T15:47:11;0.60;;;0.60;;
19179;SDS011;9722;48.754;8.868;2024-03-02T15:50:31;0.97;;;0.90;;
19179;SDS011;9722;48.754;8.868;2024-03-02T15:53:52;0.80;;;0.80;;
19179;SDS011;9722;48.754;8.868;2024-03-02T15:57:13;0.80;;;0.80;;
19179;SDS011;9722;48.754;8.868;2024-03-02T16:00:34;1.40;;;0.70;;
19179;SDS011;9722;48.754;8.868;2024-03-02T16:03:55;2.07;;;0.87;;
19179;SDS011;9722;48.754;8.868;2024-03-02T16:07:15;2.23;;;1.20;;
19179;SDS011;9722;48.754;8.868;2024-03-02T16:10:36;1.30;;;1.20;;
19179;SDS011;9722;48.754;8.868;2024-03-02T16:13:56;2.30;;;1.40;;
19179;SDS011;9722;48.754;8.868;2024-03-02T16:17:18;3.90;;;1.47;;
19179;SDS011;9722;48.754;8.868;2024-03-02T16:20:39;4.63;;;1.80;;
19179;SDS011;9722;48.754;8.868;2024-03-02T16:24:01;2.67;;;2.27;;
19179;SDS011;9722;48.754;8.868;2024-03-02T16:27:21;1.70;;;1.60;;
19179;SDS011;9722;48.754;8.868;2024-03-02T16:30:41;1.10;;;1.00;;
19179;SDS011;9722;48.754;8.868;2024-03-02T16:34:02;1.00;;;1.00;;
19179;SDS011;9722;48.754;8.868;2024-03-02T16:37:23;0.97;;;0.90;;
19179;SDS011;9722;48.754;8.868;2024-03-02T16:40:46;1.40;;;1.10;;
19179;SDS011;9722;48.754;8.868;2024-03-02T16:44:07;1.03;;;0.93;;
19179;SDS011;9722;48.754;8.868;2024-03-02T16:47:28;1.43;;;1.33;;
19179;SDS011;9722;48.754;8.868;2024-03-02T16:50:48;1.70;;;1.13;;
19179;SDS011;9722;48.754;8.868;2024-03-02T16:54:09;2.30;;;1.00;;
19179;SDS011;9722;48.754;8.868;2024-03-02T16:57:29;1.03;;;1.00;;
19179;SDS011;9722;48.754;8.868;2024-03-02T17:00:50;1.33;;;0.83;;
19179;SDS011;9722;48.754;8.868;2024-03-02T17:04:12;1.47;;;1.03;;
19179;SDS011;9722;48.754;8.868;2024-03-02T17:07:32;2.03;;;1.10;;
19179;SDS011;9722;48.754;8.868;2024-03-02T17:10:53;5.20;;;1.43;;
19179;SDS011;9722;48.754;8.868;2024-03-02T17:14:14;1.53;;;1.40;;
19179;SDS011;9722;48.754;8.868;2024-03-02T17:17:35;1.50;;;1.40;;
19179;SDS011;9722;48.754;8.868;2024-03-02T17:20:55;1.87;;;1.77;;
19179;SDS011;9722;48.754;8.868;2024-03-02T17:24:16;2.00;;;1.70;;
19179;SDS011;9722;48.754;8.868;2024-03-02T17:27:36;1.43;;;1.20;;
19179;SDS011;9722;48.754;8.868;2024-03-02T17:30:57;3.33;;;1.80;;
19179;SDS011;9722;48.754;8.868;2024-03-02T17:34:18;2.10;;;1.90;;
19179;SDS011;9722;48.754;8.868;2024-03-02T17:37:39;1.80;;;1.70;;
19179;SDS011;9722;48.754;8.868;2024-03-02T17:41:00;2.73;;;2.00;;
19179;SDS011;9722;48.754;8.868;2024-03-02T17:44:20;1.67;;;1.57;;
19179;SDS011;9722;48.754;8.868;2024-03-02T17:47:41;2.37;;;1.40;;
19179;SDS011;9722;48.754;8.868;2024-03-02T17:51:01;2.20;;;2.10;;
19179;SDS011;9722;48.754;8.868;2024-03-02T17:54:25;1.40;;;1.30;;
19179;SDS011;9722;48.754;8.868;2024-03-02T17:57:46;4.20;;;1.60;;
19179;SDS011;9722;48.754;8.868;2024-03-02T18:01:09;2.00;;;1.87;;
19179;SDS011;9722;48.754;8.868;2024-03-02T18:04:31;2.50;;;2.00;;
19179;SDS011;9722;48.754;8.868;2024-03-02T18:07:51;2.67;;;2.00;;
19179;SDS011;9722;48.754;8.868;2024-03-02T18:11:15;3.13;;;2.80;;
19179;SDS011;9722;48.754;8.868;2024-03-02T18:14:37;3.73;;;2.63;;
19179;SDS011;9722;48.754;8.868;2024-03-02T18:17:57;2.50;;;2.30;;
19179;SDS011;9722;48.754;8.868;2024-03-02T18:21:19;2.80;;;2.50;;
19179;SDS011;9722;48.754;8.868;2024-03-02T18:24:40;3.87;;;3.07;;
19179;SDS011;9722;48.754;8.868;2024-03-02T18:28:00;3.63;;;3.00;;
19179;SDS011;9722;48.754;8.868;2024-03-02T18:31:21;4.13;;;3.80;;
19179;SDS011;9722;48.754;8.868;2024-03-02T18:34:42;3.73;;;3.43;;
19179;SDS011;9722;48.754;8.868;2024-03-02T18:38:02;4.17;;;3.77;;
19179;SDS011;9722;48.754;8.868;2024-03-02T18:41:24;4.70;;;4.30;;
19179;SDS011;9722;48.754;8.868;2024-03-02T18:44:44;5.87;;;5.00;;
19179;SDS011;9722;48.754;8.868;2024-03-02T18:48:06;5.83;;;4.90;;
19179;SDS011;9722;48.754;8.868;2024-03-02T18:51:27;6.70;;;6.10;;
19179;SDS011;9722;48.754;8.868;2024-03-02T18:54:48;7.23;;;6.50;;
19179;SDS011;9722;48.754;8.868;2024-03-02T18:58:08;7.70;;;6.70;;
19179;SDS011;9722;48.754;8.868;2024-03-02T19:01:29;7.60;;;6.90;;
19179;SDS011;9722;48.754;8.868;2024-03-02T19:04:49;6.93;;;6.33;;
19179;SDS011;9722;48.754;8.868;2024-03-02T19:08:10;9.33;;;7.23;;
19179;SDS011;9722;48.754;8.868;2024-03-02T19:11:35;9.53;;;8.53;;
19179;SDS011;9722;48.754;8.868;2024-03-02T19:14:55;9.83;;;8.93;;
19179;SDS011;9722;48.754;8.868;2024-03-02T19:18:16;12.47;;;8.77;;
19179;SDS011;9722;48.754;8.868;2024-03-02T19:21:36;9.80;;;8.90;;
19179;SDS011;9722;48.754;8.868;2024-03-02T19:24:57;9.93;;;8.93;;
19179;SDS011;9722;48.754;8.868;2024-03-02T19:28:18;11.93;;;9.73;;
19179;SDS011;9722;48.754;8.868;2024-03-02T19:31:38;11.20;;;9.67;;
19179;SDS011;9722;48.754;8.868;2024-03-02T19:34:59;11.63;;;10.43;;
19179;SDS011;9722;48.754;8.868;2024-03-02T19:38:19;11.43;;;10.23;;
19179;SDS011;9722;48.754;8.868;2024-03-02T19:41:40;12.87;;;10.63;;
19179;SDS011;9722;48.754;8.868;2024-03-02T19:45:00;12.13;;;10.90;;
19179;SDS011;9722;48.754;8.868;2024-03-02T19:48:24;14.00;;;11.53;;
19179;SDS011;9722;48.754;8.868;2024-03-02T19:51:44;15.17;;;12.50;;
19179;SDS011;9722;48.754;8.868;2024-03-02T19:55:05;19.03;;;11.93;;
19179;SDS011;9722;48.754;8.868;2024-03-02T19:58:26;17.90;;;12.63;;
19179;SDS011;9722;48.754;8.868;2024-03-02T20:01:47;15.40;;;12.97;;
19179;SDS011;9722;48.754;8.868;2024-03-02T20:05:07;13.90;;;11.73;;
19179;SDS011;9722;48.754;8.868;2024-03-02T20:08:28;15.23;;;11.33;;
19179;SDS011;9722;48.754;8.868;2024-03-02T20:11:49;14.30;;;12.30;;
19179;SDS011;9722;48.754;8.868;2024-03-02T20:15:11;20.07;;;14.93;;
19179;SDS011;9722;48.754;8.868;2024-03-02T20:18:32;20.50;;;16.47;;
19179;SDS011;9722;48.754;8.868;2024-03-02T20:21:52;19.20;;;14.33;;
19179;SDS011;9722;48.754;8.868;2024-03-02T20:25:13;18.67;;;15.00;;
19179;SDS011;9722;48.754;8.868;2024-03-02T20:28:35;15.13;;;13.43;;